Time;durP1;ratioP1;P1;durP2;ratioP2;P2;SDS_P1;SDS_P2;PMS_P1;PMS_P2;Temp;Humidity;BMP_temperature;BMP_pressure;BME280_temperature;BME280_humidity;BME280_pressure;Samples;Min_cycle;Max_cycle;Signal;HPM_P1;HPM_P2
2023/03/29 00:02:10;;;;;;;2.40;0.98;;;;;;;0.40;78.62;99166.75;1749119;82;21715;-61
2023/03/29 00:04:41;;;;;;;4.40;1.00;;;;;;;0.39;78.51;99150.75;1749152;82;21134;-63
2023/03/29 00:07:13;;;;;;;1.40;0.90;;;;;;;0.36;78.52;99156.47;1749320;82;21571;-63
2023/03/29 00:09:42;;;;;;;3.17;1.10;;;;;;;0.35;78.68;99146.20;1749168;82;21612;-62
2023/03/29 00:12:11;;;;;;;1.42;0.95;;;;;;;0.35;78.77;99146.20;1749378;82;21620;-62
2023/03/29 00:14:41;;;;;;;2.58;1.00;;;;;;;0.37;78.72;99141.99;1749463;82;21127;-62
2023/03/29 00:17:12;;;;;;;1.57;1.00;;;;;;;0.39;78.58;99142.67;1749131;82;21142;-62
2023/03/29 00:19:44;;;;;;;4.60;1.32;;;;;;;0.40;78.81;99151.09;1749194;82;21123;-62
2023/03/29 00:22:14;;;;;;;1.62;0.90;;;;;;;0.40;78.68;99153.79;1749245;82;21106;-63
2023/03/29 00:24:47;;;;;;;2.98;1.42;;;;;;;0.39;78.51;99148.91;1749201;82;21551;-63
2023/03/29 00:27:18;;;;;;;2.83;1.20;;;;;;;0.39;78.75;99152.94;1750535;82;21150;-63
2023/03/29 00:29:47;;;;;;;1.75;1.00;;;;;;;0.38;78.62;99145.87;1752759;81;21091;-62
2023/03/29 00:32:17;;;;;;;1.25;1.05;;;;;;;0.36;78.63;99152.42;1722521;82;21186;-63
2023/03/29 00:34:49;;;;;;;3.22;1.30;;;;;;;0.36;78.79;99155.13;1752740;82;21146;-63
2023/03/29 00:37:17;;;;;;;1.92;0.95;;;;;;;0.35;78.72;99157.47;1752224;81;21115;-63
2023/03/29 00:39:47;;;;;;;2.45;0.90;;;;;;;0.36;78.73;99155.13;1752546;82;21162;-64
2023/03/29 00:42:16;;;;;;;2.10;1.05;;;;;;;0.34;78.39;99162.52;1752658;82;21173;-63
2023/03/29 00:45:03;;;;;;;2.55;1.12;;;;;;;0.30;78.46;99150.72;1752300;82;21616;-63
2023/03/29 00:47:37;;;;;;;2.07;1.00;;;;;;;0.31;78.57;99159.65;1752623;82;21146;-64
2023/03/29 00:50:25;;;;;;;1.35;0.85;;;;;;;0.31;78.72;99156.45;1752383;82;21277;-63
2023/03/29 00:53:27;;;;;;;2.77;0.90;;;;;;;0.31;78.29;99154.27;1752343;82;21110;-63
2023/03/29 00:56:11;;;;;;;1.52;0.85;;;;;;;0.29;78.16;99179.17;1752469;82;21269;-62
2023/03/29 00:58:51;;;;;;;2.37;1.12;;;;;;;0.25;77.99;99165.19;1752232;82;21644;-62
2023/03/29 01:01:43;;;;;;;4.97;1.50;;;;;;;0.22;77.90;99153.39;1752394;82;21169;-63
2023/03/29 01:04:41;;;;;;;3.37;1.17;;;;;;;0.21;77.90;99184.02;1752210;82;21134;-62
2023/03/29 01:07:24;;;;;;;6.58;1.90;;;;;;;0.23;78.01;99182.52;1752278;82;21174;-62
2023/03/29 01:10:12;;;;;;;3.45;1.10;;;;;;;0.24;78.24;99202.55;1752364;82;21534;-63
2023/03/29 01:12:50;;;;;;;3.15;1.10;;;;;;;0.23;78.00;99215.68;1752823;82;21187;-62
2023/03/29 01:15:23;;;;;;;1.72;0.88;;;;;;;0.22;77.91;99204.56;1752321;82;21181;-61
2023/03/29 01:17:54;;;;;;;2.10;0.78;;;;;;;0.19;77.22;99207.58;1752371;82;21154;-63
2023/03/29 01:21:03;;;;;;;1.15;0.80;;;;;;;0.18;77.37;99225.25;1752327;82;21098;-61
2023/03/29 01:23:57;;;;;;;1.52;0.85;;;;;;;0.18;77.32;99223.39;1752507;82;21150;-62
2023/03/29 01:27:02;;;;;;;1.20;0.82;;;;;;;0.22;77.59;99231.50;1752396;82;21146;-62
2023/03/29 01:29:48;;;;;;;1.85;0.93;;;;;;;0.25;77.27;99227.14;1752542;82;21177;-63
2023/03/29 01:32:40;;;;;;;1.35;0.60;;;;;;;0.24;76.86;99237.56;1752497;82;21126;-63
2023/03/29 01:35:20;;;;;;;2.22;0.90;;;;;;;0.27;77.11;99243.14;1752324;81;21527;-63
2023/03/29 01:37:56;;;;;;;2.45;1.12;;;;;;;0.28;76.78;99247.02;1750768;82;21175;-62
2023/03/29 01:40:29;;;;;;;1.60;0.90;;;;;;;0.28;76.79;99247.52;1749184;82;21130;-63
2023/03/29 01:43:45;;;;;;;1.98;1.00;;;;;;;0.29;76.51;99250.05;1749341;82;21161;-64
2023/03/29 01:46:35;;;;;;;1.37;0.90;;;;;;;0.28;76.28;99255.59;1749089;82;21169;-63
2023/03/29 01:49:25;;;;;;;2.35;1.20;;;;;;;0.27;75.92;99244.48;1749364;82;21426;-62
2023/03/29 01:52:01;;;;;;;3.20;0.95;;;;;;;0.25;76.31;99262.16;1748883;81;21115;-62
2023/03/29 01:54:37;;;;;;;1.90;0.93;;;;;;;0.25;76.86;99260.80;1717266;82;21186;-61
2023/03/29 01:57:06;;;;;;;1.27;0.80;;;;;;;0.26;77.04;99266.53;1749241;82;21166;-63
2023/03/29 01:59:38;;;;;;;1.60;0.90;;;;;;;0.29;77.09;99276.14;1749559;81;21535;-62
2023/03/29 02:02:10;;;;;;;1.00;0.75;;;;;;;0.26;76.96;99284.05;1749450;81;21122;-63
2023/03/29 02:04:46;;;;;;;1.50;0.85;;;;;;;0.26;77.20;99288.09;1749138;82;21150;-61
2023/03/29 02:07:14;;;;;;;1.92;1.00;;;;;;;0.26;77.29;99282.70;1749131;81;21227;-63
2023/03/29 02:09:43;;;;;;;1.30;0.80;;;;;;;0.24;77.14;99298.17;1744787;82;21130;-63
2023/03/29 02:12:12;;;;;;;1.77;1.02;;;;;;;0.26;77.44;99292.63;1749366;82;21177;-61
2023/03/29 02:14:43;;;;;;;1.57;0.95;;;;;;;0.29;77.28;99314.70;1720811;82;21119;-63
2023/03/29 02:17:22;;;;;;;3.02;0.85;;;;;;;0.29;77.36;99320.59;1749152;82;21624;-63
2023/03/29 02:19:59;;;;;;;2.02;1.00;;;;;;;0.26;77.33;99312.33;1749102;82;21142;-62
2023/03/29 02:22:35;;;;;;;1.92;0.88;;;;;;;0.27;77.64;99319.41;1749050;82;21149;-63
2023/03/29 02:25:07;;;;;;;2.77;0.93;;;;;;;0.29;77.62;99319.25;1749068;82;21142;-62
2023/03/29 02:27:40;;;;;;;2.52;0.98;;;;;;;0.27;77.47;99336.91;1721416;82;21692;-63
2023/03/29 02:30:10;;;;;;;1.57;0.95;;;;;;;0.30;77.50;99334.41;1749061;82;21588;-62
2023/03/29 02:32:49;;;;;;;1.30;0.82;;;;;;;0.29;77.45;99338.95;1749054;82;21162;-64
2023/03/29 02:35:23;;;;;;;2.55;1.05;;;;;;;0.30;77.51;99341.14;1749178;82;21130;-62
2023/03/29 02:37:53;;;;;;;1.00;0.80;;;;;;;0.33;77.70;99344.86;1753607;81;21190;-62
2023/03/29 02:40:22;;;;;;;1.47;0.90;;;;;;;0.32;77.33;99345.87;1760293;81;21146;-63
2023/03/29 02:42:51;;;;;;;2.70;1.10;;;;;;;0.31;77.07;99350.91;1760287;81;21129;-63
2023/03/29 02:45:21;;;;;;;2.55;1.00;;;;;;;0.29;76.72;99355.11;1706041;81;21090;-61
2023/03/29 02:47:56;;;;;;;1.95;1.00;;;;;;;0.26;76.69;99347.34;1760757;81;21216;-62
2023/03/29 02:50:26;;;;;;;1.10;0.90;;;;;;;0.22;75.79;99343.28;1760358;81;21098;-62
2023/03/29 02:52:59;;;;;;;2.08;1.22;;;;;;;0.20;76.18;99341.74;1760259;81;21114;-62
2023/03/29 02:55:33;;;;;;;3.17;1.47;;;;;;;0.18;76.46;99350.48;1760332;81;21173;-63
2023/03/29 02:58:06;;;;;;;4.58;1.27;;;;;;;0.19;76.55;99348.98;1760368;81;21193;-62
2023/03/29 03:00:37;;;;;;;2.67;1.30;;;;;;;0.21;76.74;99349.66;1760195;81;21580;-62
2023/03/29 03:03:06;;;;;;;1.77;1.00;;;;;;;0.25;76.87;99356.93;1760548;81;21190;-64
2023/03/29 03:05:38;;;;;;;14.13;1.80;;;;;;;0.26;76.74;99355.42;1760464;81;21170;-61
2023/03/29 03:08:07;;;;;;;1.37;0.90;;;;;;;0.27;76.49;99354.92;1760364;81;21125;-63
2023/03/29 03:10:36;;;;;;;1.42;1.00;;;;;;;0.24;76.00;99357.94;1760715;81;21157;-61
2023/03/29 03:13:07;;;;;;;2.83;1.05;;;;;;;0.18;76.14;99358.06;1760302;81;21110;-63
2023/03/29 03:15:37;;;;;;;4.72;1.85;;;;;;;0.18;76.43;99359.41;1760529;81;21110;-62
2023/03/29 03:18:06;;;;;;;2.22;1.20;;;;;;;0.23;76.53;99362.98;1760315;81;21616;-63
2023/03/29 03:20:36;;;;;;;3.22;1.40;;;;;;;0.25;76.52;99364.51;1760350;81;21146;-63
2023/03/29 03:23:07;;;;;;;2.95;1.45;;;;;;;0.27;76.50;99365.20;1760315;81;21126;-63
2023/03/29 03:25:37;;;;;;;2.87;1.32;;;;;;;0.29;76.55;99368.58;1760513;81;21134;-63
2023/03/29 03:28:07;;;;;;;2.47;1.12;;;;;;;0.30;76.18;99365.38;1760714;81;21162;-62
2023/03/29 03:30:35;;;;;;;4.10;1.20;;;;;;;0.27;76.20;99369.23;1760369;81;21125;-64
2023/03/29 03:33:25;;;;;;;2.40;1.20;;;;;;;0.25;75.44;99373.94;1760531;81;21586;-62
2023/03/29 03:36:09;;;;;;;3.77;1.20;;;;;;;0.22;75.45;99380.98;1760614;81;21566;-63
2023/03/29 03:38:40;;;;;;;4.53;2.17;;;;;;;0.22;75.90;99397.14;1759209;80;21118;-62
2023/03/29 03:41:10;;;;;;;4.28;1.32;;;;;;;0.23;75.87;99384.53;1758560;81;21169;-62
2023/03/29 03:43:42;;;;;;;2.90;1.67;;;;;;;0.25;76.21;99392.80;1758511;81;22103;-63
2023/03/29 03:46:12;;;;;;;3.62;1.50;;;;;;;0.26;76.00;99379.67;1758662;81;21145;-64
2023/03/29 03:48:41;;;;;;;2.45;1.20;;;;;;;0.26;75.79;99370.24;1759048;81;21133;-64
2023/03/29 03:51:30;;;;;;;2.75;1.40;;;;;;;0.23;75.71;99388.06;1757258;81;21126;-63
2023/03/29 03:53:59;;;;;;;2.08;1.20;;;;;;;0.25;75.85;99395.48;1758705;81;21217;-63
2023/03/29 03:56:33;;;;;;;2.67;1.20;;;;;;;0.23;75.29;99400.69;1723727;80;21157;-63
2023/03/29 03:59:06;;;;;;;2.10;1.10;;;;;;;0.18;75.21;99395.77;1758468;81;21648;-62
2023/03/29 04:01:46;;;;;;;3.40;1.35;;;;;;;0.17;75.37;99406.20;1663632;86;21769;-63
2023/03/29 04:04:15;;;;;;;2.45;1.25;;;;;;;0.15;75.17;99412.23;1665378;86;21189;-64
2023/03/29 04:07:01;;;;;;;3.80;1.60;;;;;;;0.15;75.29;99415.44;1638129;86;21169;-62
2023/03/29 04:09:49;;;;;;;2.15;1.32;;;;;;;0.16;75.36;99419.81;1668769;86;21161;-63
2023/03/29 04:12:34;;;;;;;3.12;0.90;;;;;;;0.14;75.11;99427.20;1668656;86;21566;-63
2023/03/29 04:15:06;;;;;;;4.08;1.42;;;;;;;0.13;75.18;99416.09;1667756;86;21249;-64
2023/03/29 04:17:36;;;;;;;1.62;1.17;;;;;;;0.12;75.39;99432.75;1665653;86;21141;-64
2023/03/29 04:20:12;;;;;;;3.85;1.45;;;;;;;0.12;75.27;99418.44;1642516;86;21118;-62
2023/03/29 04:22:41;;;;;;;3.50;1.40;;;;;;;0.09;75.35;99425.48;1665295;86;21192;-63
2023/03/29 04:25:11;;;;;;;3.47;1.30;;;;;;;0.08;75.27;99424.64;1669358;81;21153;-63
2023/03/29 04:27:49;;;;;;;2.33;1.25;;;;;;;0.09;75.19;99425.48;1758688;81;21177;-62
2023/03/29 04:30:20;;;;;;;2.12;1.35;;;;;;;0.10;75.30;99438.79;1743379;81;21130;-63
2023/03/29 04:33:08;;;;;;;3.33;1.80;;;;;;;0.12;75.30;99440.83;1758577;80;21110;-63
2023/03/29 04:35:38;;;;;;;2.45;1.50;;;;;;;0.12;74.89;99451.60;1727464;81;21348;-63
2023/03/29 04:38:08;;;;;;;2.35;1.30;;;;;;;0.10;74.94;99443.33;1758940;80;21551;-62
2023/03/29 04:40:38;;;;;;;2.62;1.32;;;;;;;0.11;74.97;99458.48;1760672;81;21153;-63
2023/03/29 04:43:13;;;;;;;2.40;1.25;;;;;;;0.10;74.87;99468.41;1760551;81;21619;-64
2023/03/29 04:45:44;;;;;;;2.12;1.22;;;;;;;0.09;74.81;99465.38;1726429;83;21661;-63
2023/03/29 04:48:21;;;;;;;2.75;1.27;;;;;;;0.07;74.48;99463.84;1711912;84;21127;-63
2023/03/29 04:50:51;;;;;;;1.95;1.22;;;;;;;0.07;74.80;99468.72;1760425;81;21566;-65
2023/03/29 04:53:21;;;;;;;3.45;1.40;;;;;;;0.09;74.81;99461.33;1726750;81;21537;-62
2023/03/29 04:55:51;;;;;;;3.60;1.65;;;;;;;0.12;74.79;99463.72;1694637;82;21201;-63
2023/03/29 04:58:23;;;;;;;4.95;1.70;;;;;;;0.12;74.73;99468.26;1712701;84;21194;-62
2023/03/29 05:00:59;;;;;;;2.98;1.60;;;;;;;0.12;74.77;99474.99;1695717;83;21150;-64
2023/03/29 05:03:35;;;;;;;3.47;1.40;;;;;;;0.14;74.44;99479.73;1696929;84;21150;-65
2023/03/29 05:06:08;;;;;;;3.17;1.47;;;;;;;0.10;74.61;99481.88;1725630;82;21127;-64
2023/03/29 05:08:38;;;;;;;6.85;2.17;;;;;;;0.11;74.63;99459.33;1633200;87;21183;-63
2023/03/29 05:11:15;;;;;;;;;;;;;;;0.04;74.50;99486.53;1636026;86;21122;-62
2023/03/29 05:13:44;;;;;;;2.90;1.55;;;;;;;0.02;74.87;99476.91;1663194;86;20168;-63
2023/03/29 05:16:14;;;;;;;4.85;1.72;;;;;;;0.01;75.13;99480.61;1641173;86;21146;-64
2023/03/29 05:18:46;;;;;;;3.20;1.35;;;;;;;0.01;75.35;99463.10;1663138;85;21205;-64
2023/03/29 05:21:19;;;;;;;3.17;1.50;;;;;;;-0.03;75.39;99482.22;1663150;86;21166;-63
2023/03/29 05:23:49;;;;;;;2.75;1.70;;;;;;;-0.06;74.95;99484.38;1663337;86;21613;-63
2023/03/29 05:26:19;;;;;;;4.00;1.72;;;;;;;-0.09;75.37;99484.69;1692841;81;21118;-64
2023/03/29 05:28:51;;;;;;;2.80;1.40;;;;;;;-0.10;75.61;99493.76;1726915;82;21138;-63
2023/03/29 05:31:22;;;;;;;3.35;1.95;;;;;;;-0.12;75.97;99487.18;1714109;84;21605;-62
2023/03/29 05:33:53;;;;;;;3.72;1.67;;;;;;;-0.10;76.21;99508.56;1726862;83;21146;-64
2023/03/29 05:36:22;;;;;;;6.42;3.65;;;;;;;-0.09;76.13;99490.06;1684410;84;21615;-63
2023/03/29 05:38:51;;;;;;;6.30;2.08;;;;;;;-0.07;76.19;99491.61;1755344;81;21142;-64
2023/03/29 05:41:23;;;;;;;4.55;2.30;;;;;;;-0.04;76.26;99493.15;1648617;87;21601;-64
2023/03/29 05:43:52;;;;;;;3.22;1.90;;;;;;;-0.01;76.31;99503.62;1648383;86;21220;-64
2023/03/29 05:46:23;;;;;;;3.08;1.80;;;;;;;0.03;76.25;99494.77;1648453;87;21188;-63
2023/03/29 05:48:54;;;;;;;5.45;1.90;;;;;;;0.02;76.05;99509.23;1648728;87;21561;-63
2023/03/29 05:51:24;;;;;;;3.08;1.70;;;;;;;-0.01;76.30;99504.96;1648623;87;21121;-63
2023/03/29 05:53:57;;;;;;;5.58;2.12;;;;;;;0.02;76.05;99518.65;1648700;87;21165;-64
2023/03/29 05:56:27;;;;;;;3.92;1.55;;;;;;;-0.02;75.75;99505.95;1648391;87;21137;-63
2023/03/29 05:58:57;;;;;;;5.17;1.80;;;;;;;-0.02;76.15;99507.30;1673733;82;21578;-64
2023/03/29 06:01:26;;;;;;;6.75;2.00;;;;;;;0.00;76.22;99512.07;1749125;82;21180;-63
2023/03/29 06:04:02;;;;;;;3.98;1.80;;;;;;;0.01;75.87;99519.65;1748938;82;21154;-63
2023/03/29 06:06:38;;;;;;;4.97;1.67;;;;;;;0.02;75.97;99528.92;1747491;82;21107;-63
2023/03/29 06:09:07;;;;;;;6.03;1.95;;;;;;;0.01;75.99;99529.92;1749143;82;21154;-65
2023/03/29 06:11:38;;;;;;;6.53;2.65;;;;;;;0.03;76.12;99525.23;1748994;82;21126;-63
2023/03/29 06:14:12;;;;;;;5.58;1.80;;;;;;;0.05;76.48;99532.66;1742611;82;21570;-65
2023/03/29 06:16:45;;;;;;;2.90;1.70;;;;;;;0.10;76.25;99540.28;1749130;82;21645;-64
2023/03/29 06:19:16;;;;;;;5.30;1.92;;;;;;;0.11;75.89;99537.44;1749217;82;21543;-64
2023/03/29 06:21:46;;;;;;;2.55;1.60;;;;;;;0.11;75.79;99541.98;1749498;82;21130;-64
2023/03/29 06:24:20;;;;;;;3.30;1.85;;;;;;;0.10;75.84;99545.17;1749089;82;21094;-64
2023/03/29 06:26:52;;;;;;;3.22;1.70;;;;;;;0.07;75.50;99558.94;1749118;82;21146;-64
2023/03/29 06:29:21;;;;;;;2.92;1.65;;;;;;;0.01;75.25;99552.81;1712197;82;21166;-63
2023/03/29 06:31:55;;;;;;;4.62;1.90;;;;;;;0.01;75.59;99551.46;1749101;82;21130;-65
2023/03/29 06:37:34;;;;;;;5.00;1.70;;;;;;;0.04;75.86;99571.36;1638876;86;21576;-64
2023/03/29 06:40:20;;;;;;;4.10;1.90;;;;;;;0.06;75.75;99562.62;1591351;88;21185;-65
2023/03/29 06:42:49;;;;;;;3.95;1.92;;;;;;;0.06;75.85;99565.82;1622559;88;21164;-64
2023/03/29 06:45:34;;;;;;;4.95;2.02;;;;;;;0.07;76.15;99564.32;1620048;88;21152;-63
2023/03/29 06:48:06;;;;;;;3.25;1.77;;;;;;;0.10;76.02;99573.45;1609046;89;21226;-64
2023/03/29 06:50:37;;;;;;;6.45;2.05;;;;;;;0.13;75.92;99583.91;1608643;89;21197;-64
2023/03/29 06:53:12;;;;;;;2.95;1.90;;;;;;;0.15;75.78;99577.03;1668591;85;21161;-64
2023/03/29 06:55:41;;;;;;;5.15;2.40;;;;;;;0.15;76.02;99598.08;1668894;86;21125;-65
2023/03/29 06:58:17;;;;;;;4.50;2.02;;;;;;;0.14;75.51;99591.50;1653875;86;21585;-64
2023/03/29 07:00:47;;;;;;;4.35;2.40;;;;;;;0.13;75.66;99585.27;1668603;86;21153;-63
2023/03/29 07:03:22;;;;;;;4.83;2.00;;;;;;;0.15;75.80;99588.66;1668417;86;21623;-65
2023/03/29 07:06:00;;;;;;;3.80;1.80;;;;;;;0.17;75.96;99597.43;1668670;85;21161;-64
2023/03/29 07:08:29;;;;;;;6.60;2.08;;;;;;;0.20;75.81;99607.05;1668600;86;21802;-64
2023/03/29 07:11:01;;;;;;;3.37;1.90;;;;;;;0.23;75.75;99614.83;1668704;85;21605;-64
2023/03/29 07:13:35;;;;;;;5.30;2.10;;;;;;;0.22;75.42;99617.17;1668690;86;21473;-64
2023/03/29 07:16:27;;;;;;;4.22;1.77;;;;;;;0.20;75.15;99633.98;1668932;86;21260;-64
2023/03/29 07:19:09;;;;;;;3.85;2.10;;;;;;;0.18;74.97;99631.45;1636480;86;21173;-63
2023/03/29 07:21:53;;;;;;;4.15;1.98;;;;;;;0.16;74.95;99644.22;1634860;87;21237;-65
2023/03/29 07:24:25;;;;;;;3.92;1.82;;;;;;;0.17;75.21;99635.14;1637863;87;21192;-64
2023/03/29 07:26:57;;;;;;;4.60;2.10;;;;;;;0.16;74.74;99633.94;1637443;86;21157;-64
2023/03/29 07:29:28;;;;;;;4.00;1.80;;;;;;;0.16;75.09;99657.69;1637666;86;21201;-64
2023/03/29 07:32:00;;;;;;;3.37;1.87;;;;;;;0.17;74.81;99639.17;1637684;87;21216;-66
2023/03/29 07:34:45;;;;;;;3.35;1.72;;;;;;;0.15;74.95;99654.64;1637509;86;21152;-64
2023/03/29 07:37:28;;;;;;;4.08;1.77;;;;;;;0.19;75.12;99663.27;1636955;88;21153;-64
2023/03/29 07:40:00;;;;;;;3.52;1.65;;;;;;;0.24;75.17;99673.09;1637529;86;21196;-65
2023/03/29 07:42:47;;;;;;;2.72;1.45;;;;;;;0.25;74.72;99676.14;1636363;88;21196;-62
2023/03/29 07:45:21;;;;;;;4.35;2.17;;;;;;;0.25;74.29;99674.30;1639124;86;21172;-65
2023/03/29 07:47:57;;;;;;;5.10;2.30;;;;;;;0.23;74.66;99674.09;1640376;86;21181;-65
2023/03/29 07:50:31;;;;;;;3.00;1.75;;;;;;;0.26;75.24;99684.07;1640276;88;21193;-67
2023/03/29 07:53:04;;;;;;;5.72;1.90;;;;;;;0.33;75.22;99693.75;1551316;91;21163;-68
2023/03/29 07:55:37;;;;;;;3.83;1.87;;;;;;;0.34;75.20;99687.36;1546733;91;21252;-66
2023/03/29 07:58:20;;;;;;;3.62;1.77;;;;;;;0.38;75.37;99690.60;1527454;93;21416;-66
2023/03/29 08:00:50;;;;;;;4.53;1.95;;;;;;;0.38;75.13;99698.69;1546176;91;21241;-65
2023/03/29 08:03:27;;;;;;;4.03;2.30;;;;;;;0.38;75.67;99700.88;1541247;92;21701;-64
2023/03/29 08:06:01;;;;;;;4.37;2.00;;;;;;;0.47;75.80;99703.17;1544412;93;21251;-65
2023/03/29 08:08:31;;;;;;;4.47;1.72;;;;;;;0.50;75.68;99705.07;1544560;93;21183;-64
2023/03/29 08:11:07;;;;;;;5.00;1.90;;;;;;;0.52;75.96;99711.66;1581460;88;21692;-65
2023/03/29 08:13:57;;;;;;;2.47;1.67;;;;;;;0.56;75.98;99711.70;1629370;87;21131;-64
2023/03/29 08:16:27;;;;;;;4.17;1.65;;;;;;;0.61;76.21;99717.48;1627738;88;21148;-64
2023/03/29 08:19:03;;;;;;;2.58;1.60;;;;;;;0.60;75.36;99711.25;1651822;86;21196;-63
2023/03/29 08:21:37;;;;;;;3.05;1.90;;;;;;;0.59;75.39;99726.23;1651916;86;21729;-64
2023/03/29 08:24:07;;;;;;;3.15;1.90;;;;;;;0.59;75.33;99724.88;1652013;86;21185;-63
2023/03/29 08:26:41;;;;;;;3.95;1.92;;;;;;;0.57;75.25;99736.31;1651713;86;21182;-62
2023/03/29 08:29:10;;;;;;;3.15;2.05;;;;;;;0.59;76.67;99730.27;1638399;86;21620;-62
2023/03/29 08:31:39;;;;;;;3.40;1.87;;;;;;;0.62;76.40;99728.63;1648859;87;21154;-63
2023/03/29 08:34:09;;;;;;;3.85;1.85;;;;;;;0.64;76.25;99722.58;1648827;87;21182;-62
2023/03/29 08:36:54;;;;;;;4.35;1.80;;;;;;;0.68;76.15;99731.25;1648611;87;21181;-63
2023/03/29 08:39:30;;;;;;;3.58;2.00;;;;;;;0.70;76.12;99732.80;1649024;87;21289;-64
2023/03/29 08:42:15;;;;;;;3.02;1.90;;;;;;;0.67;75.63;99734.44;1647720;87;21577;-64
2023/03/29 08:44:59;;;;;;;3.50;2.12;;;;;;;0.60;75.06;99731.97;1648697;87;21170;-63
2023/03/29 08:48:09;;;;;;;3.80;2.10;;;;;;;0.56;75.58;99740.85;1626114;87;21166;-65
2023/03/29 08:50:44;;;;;;;4.78;2.30;;;;;;;0.55;75.49;99742.35;1647977;87;21185;-64
2023/03/29 08:53:28;;;;;;;4.22;1.92;;;;;;;0.57;76.88;99742.55;1649176;87;21153;-63
2023/03/29 08:56:12;;;;;;;4.00;1.90;;;;;;;0.56;76.37;99744.05;1648568;87;21170;-64
2023/03/29 08:58:58;;;;;;;3.52;2.33;;;;;;;0.54;76.40;99756.83;1649090;87;21300;-64
2023/03/29 09:01:34;;;;;;;4.70;2.22;;;;;;;0.54;76.23;99755.48;1648863;87;21138;-64
2023/03/29 09:04:13;;;;;;;2.90;1.90;;;;;;;0.56;76.81;99753.48;1656306;86;21160;-63
2023/03/29 09:06:46;;;;;;;3.27;2.15;;;;;;;0.59;76.85;99758.08;1654743;86;21646;-64
2023/03/29 09:09:21;;;;;;;2.35;1.80;;;;;;;0.58;76.23;99764.47;1656989;86;21214;-65
2023/03/29 09:15:07;;;;;;;3.08;2.02;;;;;;;0.55;77.01;99758.52;1748204;81;21195;-65
2023/03/29 09:17:46;;;;;;;2.80;1.77;;;;;;;0.56;77.43;99750.78;1748316;82;21149;-64
2023/03/29 09:20:55;;;;;;;4.15;1.85;;;;;;;0.59;77.93;99762.62;1712380;84;21120;-64
2023/03/29 09:24:12;;;;;;;4.25;2.30;;;;;;;0.62;77.85;99767.70;1685333;85;21189;-64
2023/03/29 09:26:53;;;;;;;3.17;1.98;;;;;;;0.69;78.15;99770.69;1711396;83;21191;-64
2023/03/29 09:30:03;;;;;;;3.60;2.30;;;;;;;0.69;77.47;99780.97;1712435;83;21160;-65
2023/03/29 09:33:29;;;;;;;3.72;2.20;;;;;;;0.68;77.49;99771.69;1712225;83;21560;-64
2023/03/29 09:36:27;;;;;;;3.25;2.02;;;;;;;0.67;78.08;99792.41;1697947;84;21172;-64
2023/03/29 09:38:57;;;;;;;4.28;2.22;;;;;;;0.68;78.27;99779.77;1712204;83;21132;-64
2023/03/29 09:41:43;;;;;;;6.05;2.60;;;;;;;0.70;79.27;99791.25;1712362;83;21216;-64
2023/03/29 09:44:23;;;;;;;3.02;2.05;;;;;;;0.71;78.87;99805.93;1715712;82;21177;-64
2023/03/29 09:46:57;;;;;;;3.87;2.15;;;;;;;0.71;78.81;99804.58;1691244;83;21090;-65
2023/03/29 09:49:34;;;;;;;8.23;2.80;;;;;;;0.69;78.60;99799.84;1657715;85;21585;-65
2023/03/29 09:52:10;;;;;;;4.60;2.15;;;;;;;0.71;79.00;99810.47;1657535;85;21573;-64
2023/03/29 09:54:40;;;;;;;3.65;2.10;;;;;;;0.74;78.68;99817.77;1657489;85;21202;-65
2023/03/29 09:57:20;;;;;;;6.08;2.55;;;;;;;0.71;78.15;99811.32;1632547;86;21170;-66
2023/03/29 09:59:50;;;;;;;6.37;3.05;;;;;;;0.69;78.34;99821.91;1657733;86;21187;-64
2023/03/29 10:02:20;;;;;;;5.17;2.65;;;;;;;0.71;78.58;99822.61;1660989;85;21675;-64
2023/03/29 10:04:57;;;;;;;5.85;3.17;;;;;;;0.70;78.40;99831.19;1678656;85;21182;-64
2023/03/29 10:07:43;;;;;;;5.90;3.10;;;;;;;0.70;78.17;99842.48;1704893;82;21119;-65
2023/03/29 10:10:22;;;;;;;7.40;3.80;;;;;;;0.71;78.66;99843.67;1651185;86;21158;-66
2023/03/29 10:12:55;;;;;;;6.58;3.52;;;;;;;0.76;78.84;99836.48;1651243;86;21612;-64
2023/03/29 10:15:27;;;;;;;6.33;3.08;;;;;;;0.78;78.87;99854.22;1653044;86;21245;-66
2023/03/29 10:18:02;;;;;;;4.53;2.80;;;;;;;0.81;79.32;99842.28;1653153;87;21162;-63
2023/03/29 10:20:38;;;;;;;5.10;2.45;;;;;;;0.81;78.66;99858.46;1652857;86;21660;-65
2023/03/29 10:23:11;;;;;;;6.60;3.25;;;;;;;0.80;78.48;99853.56;1631456;87;21185;-64
2023/03/29 10:25:40;;;;;;;4.45;2.75;;;;;;;0.75;77.86;99866.64;1653042;86;21186;-64
2023/03/29 10:28:15;;;;;;;5.10;2.42;;;;;;;0.74;78.16;99859.55;1670334;82;21198;-64
2023/03/29 10:30:48;;;;;;;4.22;2.37;;;;;;;0.75;78.12;99863.95;1744289;82;21150;-63
2023/03/29 10:33:20;;;;;;;5.28;2.67;;;;;;;0.77;78.29;99861.95;1715468;82;21555;-66
2023/03/29 10:35:49;;;;;;;5.03;2.70;;;;;;;0.79;77.97;99872.09;1744507;81;21127;-63
2023/03/29 10:38:19;;;;;;;5.95;3.52;;;;;;;0.82;78.24;99879.88;1744519;82;21123;-63
2023/03/29 10:40:50;;;;;;;5.85;3.47;;;;;;;0.88;78.92;99876.59;1744319;82;21155;-64
2023/03/29 10:43:28;;;;;;;7.03;2.70;;;;;;;0.91;78.24;99883.53;1744350;82;21214;-63
2023/03/29 10:46:11;;;;;;;5.75;3.27;;;;;;;0.89;78.20;99878.80;1744485;82;21047;-65
2023/03/29 10:48:48;;;;;;;3.62;2.15;;;;;;;0.87;77.75;99874.05;1744613;82;21461;-64
2023/03/29 10:51:18;;;;;;;4.92;2.75;;;;;;;0.87;79.44;99882.14;1744470;82;20996;-63
2023/03/29 10:53:47;;;;;;;3.40;2.30;;;;;;;0.93;78.01;99886.94;1744917;82;21038;-64
2023/03/29 10:56:44;;;;;;;3.92;2.45;;;;;;;0.96;77.43;99878.55;1745120;82;21019;-62
2023/03/29 10:59:26;;;;;;;4.85;2.60;;;;;;;0.98;77.46;99877.90;1746451;82;21019;-63
2023/03/29 11:02:35;;;;;;;4.78;2.30;;;;;;;1.07;78.44;99880.20;1746647;82;21043;-63
2023/03/29 11:05:32;;;;;;;6.40;3.00;;;;;;;1.09;78.19;99877.70;1739942;82;21450;-64
2023/03/29 11:08:25;;;;;;;5.53;3.10;;;;;;;1.11;77.97;99880.25;1701844;83;21154;-63
2023/03/29 11:11:08;;;;;;;7.70;3.72;;;;;;;1.13;77.72;99876.90;1701227;83;21072;-64
2023/03/29 11:13:59;;;;;;;7.47;3.62;;;;;;;1.10;76.96;99890.19;1665211;84;21075;-64
2023/03/29 11:16:34;;;;;;;5.53;3.30;;;;;;;1.09;76.92;99880.89;1664335;85;21094;-64
2023/03/29 11:19:43;;;;;;;7.03;3.60;;;;;;;1.05;76.55;99887.09;1659242;85;21056;-64
2023/03/29 11:22:54;;;;;;;4.87;2.70;;;;;;;1.05;76.44;99884.89;1664315;85;21038;-63
2023/03/29 11:25:37;;;;;;;6.40;3.20;;;;;;;1.04;76.28;99888.59;1659544;85;21216;-65
2023/03/29 11:28:48;;;;;;;7.45;3.70;;;;;;;1.06;76.34;99891.48;1692144;83;21645;-65
2023/03/29 11:31:37;;;;;;;7.00;2.67;;;;;;;1.08;75.90;99898.08;1666012;85;21036;-65
2023/03/29 11:34:38;;;;;;;8.70;3.87;;;;;;;1.08;75.77;99885.94;1686505;85;21053;-64
2023/03/29 11:37:28;;;;;;;5.40;2.72;;;;;;;1.06;75.63;99894.19;1718801;83;21474;-65
2023/03/29 11:40:26;;;;;;;7.15;2.55;;;;;;;1.09;75.83;99893.89;1729673;81;21057;-64
2023/03/29 11:42:58;;;;;;;5.47;2.52;;;;;;;1.11;74.96;99893.23;1729835;81;21006;-64
2023/03/29 11:45:53;;;;;;;12.33;4.45;;;;;;;1.13;75.43;99889.89;1729949;81;21034;-63
2023/03/29 11:48:27;;;;;;;8.68;3.20;;;;;;;1.15;75.31;99886.54;1729565;81;21108;-65
2023/03/29 11:51:12;;;;;;;10.58;4.47;;;;;;;1.19;74.84;99892.48;1729976;82;21058;-65
2023/03/29 11:53:47;;;;;;;7.00;3.12;;;;;;;1.19;74.96;99905.48;1729951;81;21034;-64
2023/03/29 11:56:39;;;;;;;9.58;3.52;;;;;;;1.21;74.74;99899.93;1730123;82;21081;-64
2023/03/29 11:59:37;;;;;;;8.70;3.98;;;;;;;1.22;74.60;99905.67;1730121;83;21047;-63
2023/03/29 12:02:26;;;;;;;11.55;4.00;;;;;;;1.21;74.70;99907.52;1724335;81;21510;-64
2023/03/29 12:04:58;;;;;;;11.57;4.22;;;;;;;1.24;74.85;99912.63;1729911;83;20995;-64
2023/03/29 12:07:34;;;;;;;9.55;3.33;;;;;;;1.26;75.06;99914.67;1709796;82;21066;-65
2023/03/29 12:10:19;;;;;;;8.55;3.25;;;;;;;1.30;74.76;99909.86;1729672;82;21434;-65
2023/03/29 12:13:09;;;;;;;5.60;2.75;;;;;;;1.31;74.82;99919.64;1729673;82;21075;-64
2023/03/29 12:15:55;;;;;;;13.78;2.62;;;;;;;1.37;75.99;99919.55;1735019;81;21065;-64
2023/03/29 12:18:44;;;;;;;6.92;3.10;;;;;;;1.38;74.19;99916.70;1735257;81;21017;-64
2023/03/29 12:21:17;;;;;;;8.98;3.55;;;;;;;1.34;73.86;99920.70;1735348;81;21010;-64
2023/03/29 12:23:48;;;;;;;8.75;3.52;;;;;;;1.35;74.19;99915.65;1740507;81;21055;-64
2023/03/29 12:26:47;;;;;;;7.40;2.87;;;;;;;1.37;74.42;99920.39;1748300;81;21059;-62
2023/03/29 12:29:38;;;;;;;13.15;3.55;;;;;;;1.40;74.41;99920.09;1685653;84;21084;-64
2023/03/29 12:32:36;;;;;;;5.67;2.90;;;;;;;1.42;74.45;99930.23;1650569;84;21111;-64
2023/03/29 12:35:43;;;;;;;12.15;3.30;;;;;;;1.43;73.81;99935.98;1682982;84;21080;-63
2023/03/29 12:38:30;;;;;;;12.25;3.33;;;;;;;1.43;74.16;99930.59;1685998;84;21067;-64